sensor_id;sensor_type;location;lat;lon;timestamp;P1;durP1;ratioP1;P2;durP2;ratioP2
10465;SDS011;5280;42.600;23.556;2024-01-27T00:01:04;7.47;;;2.77;;
10465;SDS011;5280;42.600;23.556;2024-01-27T00:03:31;5.47;;;2.67;;
10465;SDS011;5280;42.600;23.556;2024-01-27T00:05:57;6.20;;;2.80;;
10465;SDS011;5280;42.600;23.556;2024-01-27T00:08:24;4.27;;;3.00;;
10465;SDS011;5280;42.600;23.556;2024-01-27T00:10:51;3.73;;;2.57;;
10465;SDS011;5280;42.600;23.556;2024-01-27T00:13:18;5.90;;;2.77;;
10465;SDS011;5280;42.600;23.556;2024-01-27T00:15:45;8.23;;;2.60;;
10465;SDS011;5280;42.600;23.556;2024-01-27T00:18:12;4.40;;;2.77;;
10465;SDS011;5280;42.600;23.556;2024-01-27T00:20:38;4.17;;;2.67;;
10465;SDS011;5280;42.600;23.556;2024-01-27T00:23:05;3.83;;;2.50;;
10465;SDS011;5280;42.600;23.556;2024-01-27T00:25:34;8.40;;;3.03;;
10465;SDS011;5280;42.600;23.556;2024-01-27T00:28:01;6.53;;;2.87;;
10465;SDS011;5280;42.600;23.556;2024-01-27T00:30:28;3.20;;;2.53;;
10465;SDS011;5280;42.600;23.556;2024-01-27T00:32:54;6.43;;;2.83;;
10465;SDS011;5280;42.600;23.556;2024-01-27T00:35:21;3.30;;;2.27;;
10465;SDS011;5280;42.600;23.556;2024-01-27T00:37:48;6.60;;;2.90;;
10465;SDS011;5280;42.600;23.556;2024-01-27T00:40:15;6.97;;;3.03;;
10465;SDS011;5280;42.600;23.556;2024-01-27T00:42:43;4.80;;;2.33;;
10465;SDS011;5280;42.600;23.556;2024-01-27T00:45:10;6.40;;;2.27;;
10465;SDS011;5280;42.600;23.556;2024-01-27T00:47:37;5.63;;;2.30;;
10465;SDS011;5280;42.600;23.556;2024-01-27T00:50:03;4.97;;;2.30;;
10465;SDS011;5280;42.600;23.556;2024-01-27T00:52:31;3.93;;;2.20;;
10465;SDS011;5280;42.600;23.556;2024-01-27T00:54:57;3.70;;;2.27;;
10465;SDS011;5280;42.600;23.556;2024-01-27T00:57:24;4.83;;;1.87;;
10465;SDS011;5280;42.600;23.556;2024-01-27T00:59:52;2.67;;;2.00;;
10465;SDS011;5280;42.600;23.556;2024-01-27T01:02:19;5.80;;;2.03;;
10465;SDS011;5280;42.600;23.556;2024-01-27T01:04:46;6.57;;;2.00;;
10465;SDS011;5280;42.600;23.556;2024-01-27T01:07:13;5.07;;;2.23;;
10465;SDS011;5280;42.600;23.556;2024-01-27T01:09:40;4.93;;;2.10;;
10465;SDS011;5280;42.600;23.556;2024-01-27T01:12:06;6.63;;;2.40;;
10465;SDS011;5280;42.600;23.556;2024-01-27T01:14:34;7.53;;;2.47;;
10465;SDS011;5280;42.600;23.556;2024-01-27T01:17:03;4.83;;;2.10;;
10465;SDS011;5280;42.600;23.556;2024-01-27T01:19:30;6.27;;;2.10;;
10465;SDS011;5280;42.600;23.556;2024-01-27T01:21:56;4.23;;;2.50;;
10465;SDS011;5280;42.600;23.556;2024-01-27T01:24:23;4.73;;;2.27;;
10465;SDS011;5280;42.600;23.556;2024-01-27T01:26:50;4.17;;;2.20;;
10465;SDS011;5280;42.600;23.556;2024-01-27T01:29:17;7.17;;;2.80;;
10465;SDS011;5280;42.600;23.556;2024-01-27T01:31:43;5.37;;;2.70;;
10465;SDS011;5280;42.600;23.556;2024-01-27T01:34:11;7.63;;;2.60;;
10465;SDS011;5280;42.600;23.556;2024-01-27T01:36:38;4.30;;;2.37;;
10465;SDS011;5280;42.600;23.556;2024-01-27T01:41:33;4.70;;;2.73;;
10465;SDS011;5280;42.600;23.556;2024-01-27T01:43:59;5.47;;;2.60;;
10465;SDS011;5280;42.600;23.556;2024-01-27T01:46:26;3.93;;;2.43;;
10465;SDS011;5280;42.600;23.556;2024-01-27T01:48:53;6.47;;;2.70;;
10465;SDS011;5280;42.600;23.556;2024-01-27T01:51:22;6.23;;;2.70;;
10465;SDS011;5280;42.600;23.556;2024-01-27T01:53:49;9.97;;;3.93;;
10465;SDS011;5280;42.600;23.556;2024-01-27T01:56:17;10.07;;;4.70;;
10465;SDS011;5280;42.600;23.556;2024-01-27T01:58:44;8.80;;;4.90;;
10465;SDS011;5280;42.600;23.556;2024-01-27T02:01:11;9.10;;;3.57;;
10465;SDS011;5280;42.600;23.556;2024-01-27T02:03:38;11.50;;;5.20;;
10465;SDS011;5280;42.600;23.556;2024-01-27T02:06:05;32.03;;;17.33;;
10465;SDS011;5280;42.600;23.556;2024-01-27T02:08:34;20.13;;;9.70;;
10465;SDS011;5280;42.600;23.556;2024-01-27T02:11:01;8.10;;;3.70;;
10465;SDS011;5280;42.600;23.556;2024-01-27T02:13:28;3.23;;;2.33;;
10465;SDS011;5280;42.600;23.556;2024-01-27T02:15:54;4.17;;;3.03;;
10465;SDS011;5280;42.600;23.556;2024-01-27T02:18:21;5.53;;;3.10;;
10465;SDS011;5280;42.600;23.556;2024-01-27T02:20:48;5.83;;;3.27;;
10465;SDS011;5280;42.600;23.556;2024-01-27T02:23:15;8.60;;;3.40;;
10465;SDS011;5280;42.600;23.556;2024-01-27T02:25:43;5.13;;;3.10;;
10465;SDS011;5280;42.600;23.556;2024-01-27T02:28:10;6.67;;;3.80;;
10465;SDS011;5280;42.600;23.556;2024-01-27T02:30:38;7.07;;;2.57;;
10465;SDS011;5280;42.600;23.556;2024-01-27T02:33:05;4.33;;;2.80;;
10465;SDS011;5280;42.600;23.556;2024-01-27T02:35:32;5.17;;;3.10;;
10465;SDS011;5280;42.600;23.556;2024-01-27T02:37:59;5.90;;;2.70;;
10465;SDS011;5280;42.600;23.556;2024-01-27T02:40:26;4.00;;;2.60;;
10465;SDS011;5280;42.600;23.556;2024-01-27T02:42:54;4.93;;;2.40;;
10465;SDS011;5280;42.600;23.556;2024-01-27T02:45:21;8.97;;;3.47;;
10465;SDS011;5280;42.600;23.556;2024-01-27T02:47:48;6.47;;;2.87;;
10465;SDS011;5280;42.600;23.556;2024-01-27T02:50:15;6.87;;;2.60;;
10465;SDS011;5280;42.600;23.556;2024-01-27T02:52:42;5.13;;;2.67;;
10465;SDS011;5280;42.600;23.556;2024-01-27T02:55:08;4.03;;;2.93;;
10465;SDS011;5280;42.600;23.556;2024-01-27T02:57:35;6.10;;;3.00;;
10465;SDS011;5280;42.600;23.556;2024-01-27T03:00:04;5.13;;;3.10;;
10465;SDS011;5280;42.600;23.556;2024-01-27T03:02:31;5.73;;;2.80;;
10465;SDS011;5280;42.600;23.556;2024-01-27T03:04:58;4.13;;;2.83;;
10465;SDS011;5280;42.600;23.556;2024-01-27T03:07:26;6.07;;;3.10;;
10465;SDS011;5280;42.600;23.556;2024-01-27T03:09:53;5.07;;;2.63;;
10465;SDS011;5280;42.600;23.556;2024-01-27T03:12:19;5.10;;;3.10;;
10465;SDS011;5280;42.600;23.556;2024-01-27T03:14:48;6.93;;;3.17;;
10465;SDS011;5280;42.600;23.556;2024-01-27T03:17:17;5.13;;;2.83;;
10465;SDS011;5280;42.600;23.556;2024-01-27T03:19:44;5.73;;;2.80;;
10465;SDS011;5280;42.600;23.556;2024-01-27T03:22:11;6.03;;;2.93;;
10465;SDS011;5280;42.600;23.556;2024-01-27T03:24:38;4.07;;;2.63;;
10465;SDS011;5280;42.600;23.556;2024-01-27T03:27:04;4.90;;;2.80;;
10465;SDS011;5280;42.600;23.556;2024-01-27T03:29:31;7.63;;;2.73;;
10465;SDS011;5280;42.600;23.556;2024-01-27T03:31:58;7.13;;;3.07;;
10465;SDS011;5280;42.600;23.556;2024-01-27T03:34:26;6.30;;;2.53;;
10465;SDS011;5280;42.600;23.556;2024-01-27T03:36:53;7.00;;;3.23;;
10465;SDS011;5280;42.600;23.556;2024-01-27T03:39:20;4.50;;;2.80;;
10465;SDS011;5280;42.600;23.556;2024-01-27T03:41:47;6.27;;;3.43;;
10465;SDS011;5280;42.600;23.556;2024-01-27T03:44:13;8.50;;;3.70;;
10465;SDS011;5280;42.600;23.556;2024-01-27T03:46:40;8.43;;;3.17;;
10465;SDS011;5280;42.600;23.556;2024-01-27T03:49:07;6.83;;;3.37;;
10465;SDS011;5280;42.600;23.556;2024-01-27T03:51:35;3.53;;;2.87;;
10465;SDS011;5280;42.600;23.556;2024-01-27T03:54:03;5.73;;;3.03;;
10465;SDS011;5280;42.600;23.556;2024-01-27T03:56:30;5.97;;;3.33;;
10465;SDS011;5280;42.600;23.556;2024-01-27T03:58:56;6.70;;;3.07;;
10465;SDS011;5280;42.600;23.556;2024-01-27T04:01:23;6.37;;;3.37;;
10465;SDS011;5280;42.600;23.556;2024-01-27T04:03:50;4.23;;;3.03;;
10465;SDS011;5280;42.600;23.556;2024-01-27T04:06:17;4.03;;;3.20;;
10465;SDS011;5280;42.600;23.556;2024-01-27T04:08:45;4.97;;;2.83;;
10465;SDS011;5280;42.600;23.556;2024-01-27T04:11:18;4.30;;;2.80;;
10465;SDS011;5280;42.600;23.556;2024-01-27T04:13:46;8.40;;;3.33;;
10465;SDS011;5280;42.600;23.556;2024-01-27T04:16:14;5.03;;;3.00;;
10465;SDS011;5280;42.600;23.556;2024-01-27T04:18:41;5.37;;;3.00;;
10465;SDS011;5280;42.600;23.556;2024-01-27T04:21:08;5.90;;;3.10;;
10465;SDS011;5280;42.600;23.556;2024-01-27T04:23:35;7.00;;;3.30;;
10465;SDS011;5280;42.600;23.556;2024-01-27T04:26:03;6.43;;;2.80;;
10465;SDS011;5280;42.600;23.556;2024-01-27T04:28:31;3.77;;;2.83;;
10465;SDS011;5280;42.600;23.556;2024-01-27T04:30:58;3.80;;;2.50;;
10465;SDS011;5280;42.600;23.556;2024-01-27T04:33:26;5.10;;;2.93;;
10465;SDS011;5280;42.600;23.556;2024-01-27T04:35:53;4.30;;;2.50;;
10465;SDS011;5280;42.600;23.556;2024-01-27T04:38:19;8.07;;;2.70;;
10465;SDS011;5280;42.600;23.556;2024-01-27T04:40:46;5.53;;;3.67;;
10465;SDS011;5280;42.600;23.556;2024-01-27T04:43:16;5.83;;;2.50;;
10465;SDS011;5280;42.600;23.556;2024-01-27T04:45:43;5.10;;;2.70;;
10465;SDS011;5280;42.600;23.556;2024-01-27T04:48:11;4.90;;;2.07;;
10465;SDS011;5280;42.600;23.556;2024-01-27T04:50:38;3.60;;;2.13;;
10465;SDS011;5280;42.600;23.556;2024-01-27T04:53:04;5.93;;;2.43;;
10465;SDS011;5280;42.600;23.556;2024-01-27T04:55:32;4.77;;;2.30;;
10465;SDS011;5280;42.600;23.556;2024-01-27T04:57:59;2.63;;;2.27;;
10465;SDS011;5280;42.600;23.556;2024-01-27T05:00:27;3.83;;;2.83;;
10465;SDS011;5280;42.600;23.556;2024-01-27T05:02:54;3.93;;;2.53;;
10465;SDS011;5280;42.600;23.556;2024-01-27T05:05:22;4.30;;;3.03;;
10465;SDS011;5280;42.600;23.556;2024-01-27T05:07:49;4.87;;;2.50;;
10465;SDS011;5280;42.600;23.556;2024-01-27T05:10:16;6.07;;;3.10;;
10465;SDS011;5280;42.600;23.556;2024-01-27T05:12:43;4.23;;;2.40;;
10465;SDS011;5280;42.600;23.556;2024-01-27T05:15:10;7.53;;;3.57;;
10465;SDS011;5280;42.600;23.556;2024-01-27T05:17:38;7.87;;;4.10;;
10465;SDS011;5280;42.600;23.556;2024-01-27T05:20:06;6.43;;;4.13;;
10465;SDS011;5280;42.600;23.556;2024-01-27T05:22:33;7.03;;;4.20;;
10465;SDS011;5280;42.600;23.556;2024-01-27T05:25:00;9.90;;;3.90;;
10465;SDS011;5280;42.600;23.556;2024-01-27T05:27:28;6.83;;;3.50;;
10465;SDS011;5280;42.600;23.556;2024-01-27T05:29:55;5.83;;;3.33;;
10465;SDS011;5280;42.600;23.556;2024-01-27T05:32:22;10.70;;;3.90;;
10465;SDS011;5280;42.600;23.556;2024-01-27T05:34:50;7.93;;;3.30;;
10465;SDS011;5280;42.600;23.556;2024-01-27T05:37:17;4.90;;;3.40;;
10465;SDS011;5280;42.600;23.556;2024-01-27T05:39:44;6.33;;;3.63;;
10465;SDS011;5280;42.600;23.556;2024-01-27T05:42:11;9.00;;;4.23;;
10465;SDS011;5280;42.600;23.556;2024-01-27T05:44:37;8.07;;;4.30;;
10465;SDS011;5280;42.600;23.556;2024-01-27T05:47:05;6.00;;;3.87;;
10465;SDS011;5280;42.600;23.556;2024-01-27T05:49:32;5.23;;;3.50;;
10465;SDS011;5280;42.600;23.556;2024-01-27T05:52:01;4.60;;;3.40;;
10465;SDS011;5280;42.600;23.556;2024-01-27T05:54:28;8.47;;;5.03;;
10465;SDS011;5280;42.600;23.556;2024-01-27T05:56:55;9.67;;;4.90;;
10465;SDS011;5280;42.600;23.556;2024-01-27T05:59:21;6.43;;;4.67;;
10465;SDS011;5280;42.600;23.556;2024-01-27T06:01:48;7.93;;;4.53;;
10465;SDS011;5280;42.600;23.556;2024-01-27T06:04:15;6.97;;;5.10;;
10465;SDS011;5280;42.600;23.556;2024-01-27T06:06:42;12.07;;;5.60;;
10465;SDS011;5280;42.600;23.556;2024-01-27T06:09:10;9.20;;;5.07;;
10465;SDS011;5280;42.600;23.556;2024-01-27T06:11:39;9.33;;;5.43;;
10465;SDS011;5280;42.600;23.556;2024-01-27T06:14:05;11.63;;;5.63;;
10465;SDS011;5280;42.600;23.556;2024-01-27T06:16:32;16.03;;;6.07;;
10465;SDS011;5280;42.600;23.556;2024-01-27T06:19:00;8.80;;;5.00;;
10465;SDS011;5280;42.600;23.556;2024-01-27T06:21:27;7.93;;;4.53;;
10465;SDS011;5280;42.600;23.556;2024-01-27T06:23:54;6.43;;;4.13;;
10465;SDS011;5280;42.600;23.556;2024-01-27T06:26:22;6.97;;;3.77;;
10465;SDS011;5280;42.600;23.556;2024-01-27T06:28:49;4.90;;;3.50;;
10465;SDS011;5280;42.600;23.556;2024-01-27T06:31:16;8.27;;;3.73;;
10465;SDS011;5280;42.600;23.556;2024-01-27T06:33:43;8.07;;;4.37;;
10465;SDS011;5280;42.600;23.556;2024-01-27T06:36:09;7.33;;;4.60;;
10465;SDS011;5280;42.600;23.556;2024-01-27T06:38:37;7.43;;;4.40;;
10465;SDS011;5280;42.600;23.556;2024-01-27T06:41:04;8.57;;;4.27;;
10465;SDS011;5280;42.600;23.556;2024-01-27T06:43:32;8.40;;;4.60;;
10465;SDS011;5280;42.600;23.556;2024-01-27T06:45:59;6.67;;;4.60;;
10465;SDS011;5280;42.600;23.556;2024-01-27T06:48:26;7.63;;;4.67;;
10465;SDS011;5280;42.600;23.556;2024-01-27T06:50:52;7.83;;;4.90;;
10465;SDS011;5280;42.600;23.556;2024-01-27T06:53:19;7.50;;;5.70;;
10465;SDS011;5280;42.600;23.556;2024-01-27T06:55:46;6.77;;;5.17;;
10465;SDS011;5280;42.600;23.556;2024-01-27T06:58:13;11.80;;;5.60;;
10465;SDS011;5280;42.600;23.556;2024-01-27T07:00:41;7.93;;;6.00;;
10465;SDS011;5280;42.600;23.556;2024-01-27T07:03:09;10.90;;;5.80;;
10465;SDS011;5280;42.600;23.556;2024-01-27T07:05:36;7.93;;;5.43;;
10465;SDS011;5280;42.600;23.556;2024-01-27T07:08:06;9.67;;;6.27;;
10465;SDS011;5280;42.600;23.556;2024-01-27T07:10:33;8.30;;;6.37;;
10465;SDS011;5280;42.600;23.556;2024-01-27T07:13:00;9.53;;;5.87;;
10465;SDS011;5280;42.600;23.556;2024-01-27T07:15:26;10.10;;;6.53;;
10465;SDS011;5280;42.600;23.556;2024-01-27T07:17:55;9.30;;;6.37;;
10465;SDS011;5280;42.600;23.556;2024-01-27T07:20:21;10.60;;;7.03;;
10465;SDS011;5280;42.600;23.556;2024-01-27T07:22:49;9.00;;;6.20;;
10465;SDS011;5280;42.600;23.556;2024-01-27T07:25:16;8.97;;;5.80;;
10465;SDS011;5280;42.600;23.556;2024-01-27T07:27:42;7.20;;;4.70;;
10465;SDS011;5280;42.600;23.556;2024-01-27T07:32:45;5.30;;;3.23;;
10465;SDS011;5280;42.600;23.556;2024-01-27T07:37:49;3.20;;;2.90;;
10465;SDS011;5280;42.600;23.556;2024-01-27T07:40:15;2.83;;;1.80;;
10465;SDS011;5280;42.600;23.556;2024-01-27T07:42:42;1.80;;;1.70;;
10465;SDS011;5280;42.600;23.556;2024-01-27T07:45:09;1.60;;;1.50;;
10465;SDS011;5280;42.600;23.556;2024-01-27T07:47:39;1.70;;;1.60;;
10465;SDS011;5280;42.600;23.556;2024-01-27T07:50:14;1.93;;;1.50;;
10465;SDS011;5280;42.600;23.556;2024-01-27T07:52:41;3.43;;;1.50;;
10465;SDS011;5280;42.600;23.556;2024-01-27T07:55:10;1.93;;;1.70;;
10465;SDS011;5280;42.600;23.556;2024-01-27T07:57:37;1.60;;;1.50;;
10465;SDS011;5280;42.600;23.556;2024-01-27T08:00:04;1.90;;;1.80;;
10465;SDS011;5280;42.600;23.556;2024-01-27T08:02:33;2.10;;;1.37;;
10465;SDS011;5280;42.600;23.556;2024-01-27T08:05:00;2.70;;;2.00;;
10465;SDS011;5280;42.600;23.556;2024-01-27T08:07:26;2.07;;;1.40;;
10465;SDS011;5280;42.600;23.556;2024-01-27T08:09:54;2.90;;;1.80;;
10465;SDS011;5280;42.600;23.556;2024-01-27T08:12:23;3.60;;;2.00;;
10465;SDS011;5280;42.600;23.556;2024-01-27T08:14:49;2.30;;;2.10;;
10465;SDS011;5280;42.600;23.556;2024-01-27T08:17:19;2.53;;;2.10;;
10465;SDS011;5280;42.600;23.556;2024-01-27T08:19:46;2.60;;;2.13;;
10465;SDS011;5280;42.600;23.556;2024-01-27T08:22:15;2.47;;;2.27;;
10465;SDS011;5280;42.600;23.556;2024-01-27T08:24:43;3.37;;;2.33;;
10465;SDS011;5280;42.600;23.556;2024-01-27T08:27:10;2.60;;;2.00;;
10465;SDS011;5280;42.600;23.556;2024-01-27T08:29:38;2.73;;;2.33;;
10465;SDS011;5280;42.600;23.556;2024-01-27T08:32:05;1.60;;;1.50;;
10465;SDS011;5280;42.600;23.556;2024-01-27T08:34:33;2.30;;;2.10;;
10465;SDS011;5280;42.600;23.556;2024-01-27T08:37:00;2.77;;;2.47;;
10465;SDS011;5280;42.600;23.556;2024-01-27T08:39:27;4.77;;;2.27;;
10465;SDS011;5280;42.600;23.556;2024-01-27T08:41:54;2.93;;;2.40;;
10465;SDS011;5280;42.600;23.556;2024-01-27T08:44:21;1.83;;;1.73;;
10465;SDS011;5280;42.600;23.556;2024-01-27T08:46:49;3.40;;;2.07;;
10465;SDS011;5280;42.600;23.556;2024-01-27T08:49:16;2.67;;;1.90;;
10465;SDS011;5280;42.600;23.556;2024-01-27T08:51:43;2.27;;;2.00;;
10465;SDS011;5280;42.600;23.556;2024-01-27T08:54:10;2.17;;;1.97;;
10465;SDS011;5280;42.600;23.556;2024-01-27T08:56:38;2.33;;;1.90;;
10465;SDS011;5280;42.600;23.556;2024-01-27T08:59:05;3.37;;;1.93;;
10465;SDS011;5280;42.600;23.556;2024-01-27T09:01:32;1.83;;;1.73;;
10465;SDS011;5280;42.600;23.556;2024-01-27T09:04:00;2.20;;;1.93;;
10465;SDS011;5280;42.600;23.556;2024-01-27T09:06:27;2.60;;;1.70;;
10465;SDS011;5280;42.600;23.556;2024-01-27T09:08:54;2.00;;;1.70;;
10465;SDS011;5280;42.600;23.556;2024-01-27T09:11:21;2.53;;;1.80;;
10465;SDS011;5280;42.600;23.556;2024-01-27T09:13:48;3.27;;;1.83;;
10465;SDS011;5280;42.600;23.556;2024-01-27T09:16:17;1.60;;;1.50;;
10465;SDS011;5280;42.600;23.556;2024-01-27T09:18:43;1.97;;;1.83;;
10465;SDS011;5280;42.600;23.556;2024-01-27T09:21:12;2.00;;;1.90;;
10465;SDS011;5280;42.600;23.556;2024-01-27T09:23:45;1.83;;;1.63;;
10465;SDS011;5280;42.600;23.556;2024-01-27T09:26:12;2.20;;;2.00;;
10465;SDS011;5280;42.600;23.556;2024-01-27T09:28:40;4.07;;;2.10;;
10465;SDS011;5280;42.600;23.556;2024-01-27T09:31:09;2.50;;;2.30;;
10465;SDS011;5280;42.600;23.556;2024-01-27T09:33:36;1.83;;;1.73;;
10465;SDS011;5280;42.600;23.556;2024-01-27T09:36:03;1.80;;;1.70;;
10465;SDS011;5280;42.600;23.556;2024-01-27T09:38:32;1.50;;;1.40;;
10465;SDS011;5280;42.600;23.556;2024-01-27T09:40:59;1.83;;;1.73;;
10465;SDS011;5280;42.600;23.556;2024-01-27T09:43:26;1.80;;;1.70;;
10465;SDS011;5280;42.600;23.556;2024-01-27T09:45:56;1.87;;;1.70;;
10465;SDS011;5280;42.600;23.556;2024-01-27T09:48:23;1.70;;;1.60;;
10465;SDS011;5280;42.600;23.556;2024-01-27T09:50:50;1.70;;;1.60;;
10465;SDS011;5280;42.600;23.556;2024-01-27T09:53:18;1.83;;;1.73;;
10465;SDS011;5280;42.600;23.556;2024-01-27T09:55:47;1.53;;;1.43;;
10465;SDS011;5280;42.600;23.556;2024-01-27T09:58:14;1.57;;;1.47;;
10465;SDS011;5280;42.600;23.556;2024-01-27T10:00:41;1.60;;;1.50;;
10465;SDS011;5280;42.600;23.556;2024-01-27T10:03:08;2.73;;;1.90;;
10465;SDS011;5280;42.600;23.556;2024-01-27T10:05:35;1.90;;;1.57;;
10465;SDS011;5280;42.600;23.556;2024-01-27T10:08:05;1.73;;;1.63;;
10465;SDS011;5280;42.600;23.556;2024-01-27T10:10:32;1.67;;;1.57;;
10465;SDS011;5280;42.600;23.556;2024-01-27T10:13:01;1.70;;;1.60;;
10465;SDS011;5280;42.600;23.556;2024-01-27T10:15:31;1.47;;;1.47;;
10465;SDS011;5280;42.600;23.556;2024-01-27T10:18:04;1.37;;;1.37;;
10465;SDS011;5280;42.600;23.556;2024-01-27T10:20:32;1.60;;;1.40;;
10465;SDS011;5280;42.600;23.556;2024-01-27T10:22:59;1.70;;;1.60;;
10465;SDS011;5280;42.600;23.556;2024-01-27T10:25:37;1.67;;;1.57;;
10465;SDS011;5280;42.600;23.556;2024-01-27T10:28:05;1.50;;;1.40;;
10465;SDS011;5280;42.600;23.556;2024-01-27T10:30:33;1.40;;;1.40;;
10465;SDS011;5280;42.600;23.556;2024-01-27T10:33:00;1.40;;;1.30;;
10465;SDS011;5280;42.600;23.556;2024-01-27T10:35:27;1.30;;;1.30;;
10465;SDS011;5280;42.600;23.556;2024-01-27T10:37:55;1.73;;;1.30;;
10465;SDS011;5280;42.600;23.556;2024-01-27T10:40:23;1.87;;;1.30;;
10465;SDS011;5280;42.600;23.556;2024-01-27T10:42:51;1.67;;;1.57;;
10465;SDS011;5280;42.600;23.556;2024-01-27T10:45:30;1.73;;;1.63;;
10465;SDS011;5280;42.600;23.556;2024-01-27T10:48:02;1.77;;;1.67;;
10465;SDS011;5280;42.600;23.556;2024-01-27T10:50:30;1.43;;;1.27;;
10465;SDS011;5280;42.600;23.556;2024-01-27T10:53:01;1.50;;;1.40;;
10465;SDS011;5280;42.600;23.556;2024-01-27T10:55:29;1.90;;;1.50;;
10465;SDS011;5280;42.600;23.556;2024-01-27T10:57:59;1.57;;;1.50;;
10465;SDS011;5280;42.600;23.556;2024-01-27T11:00:29;1.67;;;1.57;;
10465;SDS011;5280;42.600;23.556;2024-01-27T11:02:58;2.30;;;2.10;;
10465;SDS011;5280;42.600;23.556;2024-01-27T11:07:53;1.50;;;1.40;;
10465;SDS011;5280;42.600;23.556;2024-01-27T11:10:22;1.50;;;1.40;;
10465;SDS011;5280;42.600;23.556;2024-01-27T11:12:49;1.27;;;1.20;;
10465;SDS011;5280;42.600;23.556;2024-01-27T11:15:17;1.60;;;1.50;;
10465;SDS011;5280;42.600;23.556;2024-01-27T11:17:46;1.10;;;1.10;;
10465;SDS011;5280;42.600;23.556;2024-01-27T11:20:13;1.47;;;1.37;;
10465;SDS011;5280;42.600;23.556;2024-01-27T11:22:42;1.57;;;1.47;;
10465;SDS011;5280;42.600;23.556;2024-01-27T11:25:14;1.20;;;1.20;;
10465;SDS011;5280;42.600;23.556;2024-01-27T11:27:43;1.80;;;1.70;;
10465;SDS011;5280;42.600;23.556;2024-01-27T11:30:25;2.87;;;2.00;;
10465;SDS011;5280;42.600;23.556;2024-01-27T11:33:00;1.47;;;1.47;;
10465;SDS011;5280;42.600;23.556;2024-01-27T11:35:28;1.70;;;1.60;;
10465;SDS011;5280;42.600;23.556;2024-01-27T11:37:55;1.87;;;1.77;;
10465;SDS011;5280;42.600;23.556;2024-01-27T11:40:22;2.33;;;2.10;;
10465;SDS011;5280;42.600;23.556;2024-01-27T11:42:55;2.20;;;2.10;;
10465;SDS011;5280;42.600;23.556;2024-01-27T11:45:23;1.70;;;1.57;;
10465;SDS011;5280;42.600;23.556;2024-01-27T11:47:50;1.90;;;1.80;;
10465;SDS011;5280;42.600;23.556;2024-01-27T11:50:18;2.13;;;1.97;;
10465;SDS011;5280;42.600;23.556;2024-01-27T11:52:46;1.90;;;1.80;;
10465;SDS011;5280;42.600;23.556;2024-01-27T11:55:13;2.17;;;1.90;;
10465;SDS011;5280;42.600;23.556;2024-01-27T11:57:41;2.17;;;1.97;;
10465;SDS011;5280;42.600;23.556;2024-01-27T12:00:08;1.90;;;1.80;;
10465;SDS011;5280;42.600;23.556;2024-01-27T12:02:36;2.50;;;2.30;;
10465;SDS011;5280;42.600;23.556;2024-01-27T12:05:03;2.00;;;1.90;;
10465;SDS011;5280;42.600;23.556;2024-01-27T12:07:35;2.30;;;2.10;;
10465;SDS011;5280;42.600;23.556;2024-01-27T12:10:02;2.10;;;2.00;;
10465;SDS011;5280;42.600;23.556;2024-01-27T12:12:29;3.77;;;2.53;;
10465;SDS011;5280;42.600;23.556;2024-01-27T12:14:56;2.60;;;2.50;;
10465;SDS011;5280;42.600;23.556;2024-01-27T12:17:27;2.53;;;2.40;;
10465;SDS011;5280;42.600;23.556;2024-01-27T12:19:54;2.13;;;2.03;;
10465;SDS011;5280;42.600;23.556;2024-01-27T12:22:22;3.03;;;2.60;;
10465;SDS011;5280;42.600;23.556;2024-01-27T12:24:52;2.63;;;2.47;;
10465;SDS011;5280;42.600;23.556;2024-01-27T12:27:20;2.10;;;2.00;;
10465;SDS011;5280;42.600;23.556;2024-01-27T12:29:48;2.50;;;2.30;;
10465;SDS011;5280;42.600;23.556;2024-01-27T12:32:15;2.50;;;2.30;;
10465;SDS011;5280;42.600;23.556;2024-01-27T12:34:43;2.53;;;2.43;;
10465;SDS011;5280;42.600;23.556;2024-01-27T12:37:12;2.10;;;2.00;;
10465;SDS011;5280;42.600;23.556;2024-01-27T12:39:41;2.53;;;2.30;;
10465;SDS011;5280;42.600;23.556;2024-01-27T12:42:13;2.63;;;2.37;;
10465;SDS011;5280;42.600;23.556;2024-01-27T12:44:40;2.40;;;2.20;;
10465;SDS011;5280;42.600;23.556;2024-01-27T12:47:10;2.10;;;1.90;;
10465;SDS011;5280;42.600;23.556;2024-01-27T12:49:38;3.10;;;2.23;;
10465;SDS011;5280;42.600;23.556;2024-01-27T12:52:06;3.70;;;2.10;;
10465;SDS011;5280;42.600;23.556;2024-01-27T12:54:33;2.97;;;2.67;;
10465;SDS011;5280;42.600;23.556;2024-01-27T12:57:00;2.97;;;2.77;;
10465;SDS011;5280;42.600;23.556;2024-01-27T12:59:29;2.70;;;2.47;;
10465;SDS011;5280;42.600;23.556;2024-01-27T13:01:58;2.30;;;2.20;;
10465;SDS011;5280;42.600;23.556;2024-01-27T13:04:25;2.63;;;2.43;;
10465;SDS011;5280;42.600;23.556;2024-01-27T13:06:52;2.97;;;2.00;;
10465;SDS011;5280;42.600;23.556;2024-01-27T13:09:20;2.00;;;1.87;;
10465;SDS011;5280;42.600;23.556;2024-01-27T13:11:47;1.77;;;1.67;;
10465;SDS011;5280;42.600;23.556;2024-01-27T13:14:14;2.10;;;2.00;;
10465;SDS011;5280;42.600;23.556;2024-01-27T13:16:44;2.30;;;2.10;;
10465;SDS011;5280;42.600;23.556;2024-01-27T13:19:11;1.97;;;1.77;;
10465;SDS011;5280;42.600;23.556;2024-01-27T13:21:39;1.67;;;1.57;;
10465;SDS011;5280;42.600;23.556;2024-01-27T13:24:06;3.00;;;1.70;;
10465;SDS011;5280;42.600;23.556;2024-01-27T13:26:34;1.90;;;1.80;;
10465;SDS011;5280;42.600;23.556;2024-01-27T13:29:03;1.50;;;1.40;;
10465;SDS011;5280;42.600;23.556;2024-01-27T13:31:30;3.27;;;1.30;;
10465;SDS011;5280;42.600;23.556;2024-01-27T13:33:59;1.50;;;1.40;;
10465;SDS011;5280;42.600;23.556;2024-01-27T13:36:26;1.20;;;1.20;;
10465;SDS011;5280;42.600;23.556;2024-01-27T13:38:53;1.93;;;1.50;;
10465;SDS011;5280;42.600;23.556;2024-01-27T13:41:20;1.73;;;1.63;;
10465;SDS011;5280;42.600;23.556;2024-01-27T13:43:47;1.60;;;1.50;;
10465;SDS011;5280;42.600;23.556;2024-01-27T13:46:16;1.87;;;1.70;;
10465;SDS011;5280;42.600;23.556;2024-01-27T13:48:44;2.93;;;1.70;;
10465;SDS011;5280;42.600;23.556;2024-01-27T13:51:14;1.70;;;1.40;;
10465;SDS011;5280;42.600;23.556;2024-01-27T13:53:41;1.77;;;1.33;;
10465;SDS011;5280;42.600;23.556;2024-01-27T13:56:07;1.20;;;1.10;;
10465;SDS011;5280;42.600;23.556;2024-01-27T13:58:34;0.90;;;0.90;;
10465;SDS011;5280;42.600;23.556;2024-01-27T14:01:01;1.33;;;1.00;;
10465;SDS011;5280;42.600;23.556;2024-01-27T14:03:29;1.47;;;1.10;;
10465;SDS011;5280;42.600;23.556;2024-01-27T14:05:58;1.80;;;1.40;;
10465;SDS011;5280;42.600;23.556;2024-01-27T14:08:27;1.50;;;1.40;;
10465;SDS011;5280;42.600;23.556;2024-01-27T14:10:55;3.90;;;1.77;;
10465;SDS011;5280;42.600;23.556;2024-01-27T14:13:22;1.53;;;0.93;;
10465;SDS011;5280;42.600;23.556;2024-01-27T14:15:49;1.50;;;1.37;;
10465;SDS011;5280;42.600;23.556;2024-01-27T14:18:16;1.03;;;1.03;;
10465;SDS011;5280;42.600;23.556;2024-01-27T14:20:45;2.73;;;1.10;;
10465;SDS011;5280;42.600;23.556;2024-01-27T14:23:13;1.23;;;1.00;;
10465;SDS011;5280;42.600;23.556;2024-01-27T14:25:41;1.17;;;1.17;;
10465;SDS011;5280;42.600;23.556;2024-01-27T14:28:08;1.00;;;1.00;;
10465;SDS011;5280;42.600;23.556;2024-01-27T14:30:36;0.97;;;0.93;;
10465;SDS011;5280;42.600;23.556;2024-01-27T14:33:04;2.13;;;1.50;;
10465;SDS011;5280;42.600;23.556;2024-01-27T14:35:31;1.33;;;1.20;;
10465;SDS011;5280;42.600;23.556;2024-01-27T14:37:59;1.30;;;1.00;;
10465;SDS011;5280;42.600;23.556;2024-01-27T14:40:27;1.10;;;1.10;;
10465;SDS011;5280;42.600;23.556;2024-01-27T14:42:58;1.40;;;1.30;;
10465;SDS011;5280;42.600;23.556;2024-01-27T14:45:25;1.27;;;1.10;;
10465;SDS011;5280;42.600;23.556;2024-01-27T14:47:52;2.43;;;1.20;;
10465;SDS011;5280;42.600;23.556;2024-01-27T14:50:19;1.60;;;1.27;;
10465;SDS011;5280;42.600;23.556;2024-01-27T14:52:49;2.33;;;1.20;;
10465;SDS011;5280;42.600;23.556;2024-01-27T14:55:16;1.40;;;1.30;;
10465;SDS011;5280;42.600;23.556;2024-01-27T14:57:45;1.13;;;0.90;;
10465;SDS011;5280;42.600;23.556;2024-01-27T15:00:14;1.10;;;1.10;;